Metar Cercanos

 

LEPA - Palma De Mallorc, Spain
Distance from station: ONO 38km
Actualización: Wed, 12-May-2021 1:00am CEST
Despejado
Despejado
 Viento del N
Viento: N 4 km/h
Temperatura: 12°C
Rocío: 10°C
Humedad: 88%
Barómetro: 1020 hPa
Resumen: Despejado
Visibility: greater than 10 km
2021/05/11 23:00 LEPA 112300Z 35002KT CAVOK 12/10 Q1020 NOSIG
LEMH - Mahon/Menorca Is, Spain
Distance from station: ENE 105km
Actualización: Wed, 12-May-2021 1:30am CEST
Despejado
Despejado
 Viento del SSE
Viento: SSE 7 km/h
Temperatura: 13°C
Rocío: 9°C
Humedad: 77%
Barómetro: 1020 hPa
Resumen: Despejado
Visibility: greater than 10 km
2021/05/11 23:30 LEMH 112330Z AUTO 15004KT CAVOK 13/09 Q1020
 
LEIB - Ibiza/Es Codola, Spain
Distance from station: OSO 165km
Actualización: Wed, 12-May-2021 1:00am CEST
Despejado
Despejado
 Viento del SO
Viento: SO 15 km/h
Temperatura: 17°C
Rocío: 14°C
Humedad: 83%
Barómetro: 1020 hPa
Resumen: Despejado
Visibility: greater than 10 km
2021/05/11 23:00 LEIB 112300Z 23008KT 200V260 CAVOK 17/14 Q1020 NOSIG
LEBL - Barcelona Airpor, Spain
Distance from station: NNO 225km
Actualización: Wed, 12-May-2021 1:00am CEST
Few Clouds
Few Clouds
 Viento del NO
Viento: NO 9 km/h
Temperatura: 12°C
Rocío: 9°C
Humedad: 82%
Barómetro: 1019 hPa
Clouds: Few Clouds
Visibility: 10 km
Cloud details: Few Clouds 762 m
2021/05/11 23:00 LEBL 112300Z 32005KT 9999 FEW025 12/09 Q1019 NOSIG
 
LEVC - Valencia (civ/Mi, Spain
Distance from station: NO 188km
Actualización: Wed, 12-May-2021 1:00am CEST
Despejado
Despejado
 Viento del NO
Viento: NO 13 km/h
Temperatura: 17°C
Rocío: 3°C
Humedad: 39%
Barómetro: 1019 hPa
Resumen: Despejado
Visibility: greater than 10 km
2021/05/11 23:00 LEVC 112300Z 31007KT CAVOK 17/03 Q1019 NOSIG
LEGE - Gerona/Costa Bra, Spain
Distance from station: N 276km
Actualización: Wed, 12-May-2021 1:30am CEST
Few Clouds
Few Clouds
 Viento del calm
Viento: Calma
Temperatura: 7°C
Rocío: 6°C
Humedad: 93%
Barómetro: 1019 hPa
Clouds: Few Clouds
Visibility: 10 km
Cloud details: Few Clouds 61 m
2021/05/11 23:30 LEGE 112330Z 00000KT 9999 FEW002 07/06 Q1019
 
LEAL - Alicante/El Alte, Spain
Distance from station: OSO 344km
Actualización: Wed, 12-May-2021 1:00am CEST
Despejado
Despejado
 Viento del O
Viento: O 9 km/h
Temperatura: 14°C
Rocío: 9°C
Humedad: 72%
Barómetro: 1020 hPa
Resumen: Despejado
Visibility: greater than 10 km
2021/05/11 23:00 LEAL 112300Z 27005KT CAVOK 14/09 Q1020 NOSIG
LEAM - Almeria Airport, Spain
Distance from station: SSO 56km
Actualización: Wed, 12-May-2021 1:30am CEST
Despejado
Despejado
 Viento del ENE
Viento: ENE 7 km/h
Temperatura: 15°C
Rocío: 11°C
Humedad: 77%
Barómetro: 1020 hPa
Resumen: Despejado
Visibility: greater than 10 km
2021/05/11 23:30 LEAM 112330Z AUTO 06004KT CAVOK 15/11 Q1020
 
LEZG - Zaragoza (mil/Ci, Spain
Distance from station: NO 431km
Actualización: Wed, 12-May-2021 1:30am CEST
Few Clouds
Few Clouds
 Viento del SSO
Viento: SSO 6 km/h
Temperatura: 14°C
Rocío: 4°C
Humedad: 51%
Barómetro: 1018 hPa
Clouds: Few Clouds
Visibility: 10 km
Cloud details: Few Clouds 2438 m
2021/05/11 23:30 LEZG 112330Z 20003KT 080V230 9999 FEW080 14/04 Q1018
LEMD - Madrid/Barajas, Spain
Distance from station: ONO 234km
Actualización: Wed, 12-May-2021 1:00am CEST
Parcialmente nuboso
Parcialmente nuboso
 Viento del OSO
Viento: OSO 24 km/h
Temperatura: 14°C
Rocío: 3°C
Humedad: 48%
Barómetro: 1020 hPa
Clouds: Parcialmente nuboso
Visibility: 10 km
Cloud details: Parcialmente nuboso 2134 m
2021/05/11 23:00 LEMD 112300Z 24013KT 9999 SCT070 14/03 Q1020 NOSIG
 
LEGR - Granada Airport, Spain
Distance from station: OSO 62km
Actualización: Wed, 12-May-2021 1:30am CEST
Despejado
Despejado
 Viento del calm
Viento: Calma
Temperatura: 10°C
Rocío: 6°C
Humedad: 76%
Barómetro: 1023 hPa
Clouds: Despejado
Visibility: 8 km
2021/05/11 23:30 LEGR 112330Z AUTO 00000KT 8000 NCD 10/06 Q1023
LEMG - Malaga (civ/Mil), Spain
Distance from station: OSO 227km
Actualización: Wed, 12-May-2021 1:00am CEST
Despejado
Despejado
 Viento del O
Viento: O 22 km/h
Temperatura: 19°C
Rocío: 5°C
Humedad: 40%
Barómetro: 1021 hPa
Resumen: Despejado
Visibility: greater than 10 km
2021/05/11 23:00 LEMG 112300Z 27012KT CAVOK 19/05 Q1021 NOSIG
 
LEZL - Sevilla (civ/Mil, Spain
Distance from station: S 318km
Actualización: Wed, 12-May-2021 1:00am CEST
Despejado
Despejado
 Viento del ONO
Viento: ONO 13 km/h
Temperatura: 16°C
Rocío: 9°C
Humedad: 63%
Barómetro: 1022 hPa
Resumen: Despejado
Visibility: greater than 10 km
2021/05/11 23:00 LEZL 112300Z 29007KT CAVOK 16/09 Q1022 NOSIG
LEVT - Vitoria, Spain
Distance from station: NO 226km
Actualización: Wed, 12-May-2021 1:30am CEST
Parcialmente nuboso
Parcialmente nuboso
 Viento del varies
Viento: varies 4 km/h
Temperatura: 10°C
Rocío: 6°C
Humedad: 76%
Barómetro: 1017 hPa
Clouds: Parcialmente nuboso
Visibility: 10 km
Cloud details: Parcialmente nuboso 1829 m
2021/05/11 23:30 LEVT 112330Z VRB02KT 9999 SCT060 10/06 Q1017
 
LEBB - Bilbao/Sondica, Spain
Distance from station: NNO 235km
Actualización: Wed, 12-May-2021 1:30am CEST
Despejado
Despejado
 Viento del ENE
Viento: ENE 6 km/h
Temperatura: 11°C
Rocío: 8°C
Humedad: 82%
Barómetro: 1017 hPa
Resumen: Despejado
Visibility: greater than 10 km
2021/05/11 23:30 LEBB 112330Z AUTO 07003KT 050V140 CAVOK 11/08 Q1017
LESO - San Sebastian/Fu, Spain
Distance from station: N 231km
Actualización: Wed, 12-May-2021 1:30am CEST
Despejado
Despejado
 Viento del S
Viento: S 6 km/h
Temperatura: 12°C
Rocío: 8°C
Humedad: 77%
Barómetro: 1017 hPa
Resumen: Despejado
Visibility: greater than 10 km
2021/05/11 23:30 LESO 112330Z AUTO 17003KT 140V200 CAVOK 12/08 Q1017
 
LEVD - Valladolid(Mil/C, Spain
Distance from station: ONO 239km
Actualización: Wed, 12-May-2021 1:30am CEST
Cubierto
Cubierto
 Viento del OSO
Viento: OSO 13 km/h
Temperatura: 8°C
Sensación frio: 6°C
Rocío: 6°C
Humedad: 87%
Barómetro: 1019 hPa
Clouds: Cubierto
Visibility: 10 km
Cloud details: Few Clouds 1128 m
Cubierto 1341 m
2021/05/11 23:30 LEVD 112330Z AUTO 25007KT 9999 FEW037 OVC044 08/06 Q1019
LESA - Salamanca (civ/M, Spain
Distance from station: ONO 349km
Actualización: Wed, 12-May-2021 1:30am CEST
Cubierto
Cubierto
 Viento del SO
Viento: SO 11 km/h
Temperatura: 10°C
Sensación frio: 8°C
Rocío: 6°C
Humedad: 76%
Barómetro: 1020 hPa
Clouds: Cubierto
Visibility: 10 km
Cloud details: Parcialmente nuboso 1097 m
Cubierto 1341 m
2021/05/11 23:30 LESA 112330Z AUTO 23006KT 9999 SCT036 OVC044 10/06 Q1020
 
LEXJ - Santander/Paraya, Spain
Distance from station: NNO 247km
Actualización: Wed, 12-May-2021 1:30am CEST
Despejado
Despejado
 Viento del E
Viento: E 6 km/h
Temperatura: 12°C
Rocío: 6°C
Humedad: 67%
Barómetro: 1015 hPa
Resumen: Despejado
Visibility: greater than 10 km
2021/05/11 23:30 LEXJ 112330Z AUTO 09003KT 050V140 CAVOK 12/06 Q1015
LEAS - Asturias/Aviles, Spain
Distance from station: NO 214km
Actualización: Wed, 12-May-2021 1:30am CEST
Muy nuboso
Muy nuboso
 Viento del SE
Viento: SE 6 km/h
Temperatura: 10°C
Rocío: 9°C
Humedad: 94%
Barómetro: 1012 hPa
Clouds: Muy nuboso
Visibility: 10 km
Cloud details: Few Clouds 2012 m
Muy nuboso 2408 m
2021/05/11 23:30 LEAS 112330Z AUTO 14003KT 100V170 9999 FEW066 BKN079 10/09 Q1012
 
LECO - La Coruna/Alvedr, Spain
Distance from station: ONO 222km
Actualización: Wed, 12-May-2021 1:30am CEST
Muy nuboso
Muy nuboso
 Viento del SSO
Viento: SSO 9 km/h
Temperatura: 14°C
Rocío: 13°C
Humedad: 94%
Barómetro: 1011 hPa
Clouds: Muy nuboso
Visibility: 10 km
Cloud details: Muy nuboso 914 m
2021/05/11 23:30 LECO 112330Z AUTO 20005KT 150V250 9999 BKN030 14/13 Q1011
LEVX - Vigo/Peinador, Spain
Distance from station: O 214km
Actualización: Wed, 12-May-2021 1:00am CEST
Lluvia débil, Muy nuboso
Lluvia débil, Muy nuboso
 Viento del SO
Viento: SO 30 km/h, Racha: 48 km/h
Temperatura: 13°C
Rocío: 11°C
Humedad: 88%
Barómetro: 1016 hPa
Resumen: Lluvia débil
Clouds: Muy nuboso
Visibility: 10 km
Cloud details: Parcialmente nuboso 396 m
Muy nuboso 549 m
Muy nuboso 762 m
2021/05/11 23:00 LEVX 112300Z 22016G26KT 190V250 9999 -RA SCT013 BKN018 BKN025 13/11 Q1016 TEMPO RA